createdAt,value
2022-09-07T19:36:36.275Z,43.16
2022-09-07T19:39:08.568Z,43.13
2022-09-07T19:41:45.279Z,43.25
2022-09-07T19:44:17.260Z,43.38
2022-09-07T19:46:49.328Z,43.48
2022-09-07T19:49:21.373Z,43.55
2022-09-07T19:51:53.470Z,43.59
2022-09-07T19:54:25.679Z,43.47
2022-09-07T19:56:57.645Z,43.58
2022-09-07T19:59:29.699Z,43.59
2022-09-07T20:02:01.967Z,43.62
2022-09-07T20:04:35.069Z,43.78
2022-09-07T20:07:07.589Z,43.77
2022-09-07T20:09:39.950Z,43.82
2022-09-07T20:12:12.110Z,43.86
2022-09-07T20:14:44.111Z,43.90
2022-09-07T20:17:16.566Z,43.88
2022-09-07T20:19:50.705Z,43.84
2022-09-07T20:22:22.945Z,43.92
2022-09-07T20:24:57.870Z,44.04
2022-09-07T20:27:44.229Z,44.02
2022-09-07T20:30:17.969Z,44.06
2022-09-07T20:32:49.991Z,44.19
2022-09-07T20:35:35.081Z,44.11
2022-09-07T20:38:07.939Z,44.07
2022-09-07T20:40:50.983Z,44.01
2022-09-07T20:43:32.030Z,44.12
2022-09-07T20:46:05.043Z,44.18
2022-09-07T20:48:38.417Z,44.19
2022-09-07T20:51:16.007Z,44.22
2022-09-07T20:53:50.446Z,44.24
2022-09-07T20:56:25.633Z,44.25
2022-09-07T20:59:01.169Z,44.28
2022-09-07T21:01:35.314Z,44.33
2022-09-07T21:04:10.190Z,44.31
2022-09-07T21:06:42.278Z,44.44
2022-09-07T21:09:17.848Z,44.41
2022-09-07T21:11:52.091Z,44.40
2022-09-07T21:14:34.615Z,44.41
2022-09-07T21:17:06.866Z,44.45
2022-09-07T21:19:41.113Z,44.50
2022-09-07T21:22:21.908Z,44.55
2022-09-07T21:24:57.552Z,44.51
2022-09-07T21:27:38.123Z,44.61
2022-09-07T21:30:12.146Z,44.62
2022-09-07T21:32:44.183Z,44.79
2022-09-07T21:35:16.145Z,44.79
2022-09-07T21:37:48.685Z,44.84
2022-09-07T21:40:20.845Z,44.77
2022-09-07T21:42:53.614Z,44.82
2022-09-07T21:45:25.662Z,44.85
2022-09-07T21:47:57.753Z,44.81
2022-09-07T21:50:30.731Z,44.89
2022-09-07T21:53:05.728Z,44.89
2022-09-07T21:55:42.657Z,44.85
2022-09-07T21:58:18.700Z,44.96
2022-09-07T22:00:51.033Z,45.08
2022-09-07T22:03:28.542Z,45.10
2022-09-07T22:06:04.165Z,45.00
2022-09-07T22:08:43.732Z,45.18
2022-09-07T22:14:05.818Z,45.15
2022-09-07T22:16:39.117Z,45.19
2022-09-07T22:19:12.870Z,45.26
2022-09-07T22:21:50.143Z,45.27
2022-09-07T22:24:24.695Z,45.25
2022-09-07T22:26:56.891Z,45.33
2022-09-07T22:29:29.471Z,45.34
2022-09-07T22:32:01.601Z,45.30
2022-09-07T22:34:36.257Z,45.31
2022-09-07T22:37:15.591Z,45.27
2022-09-07T22:39:49.689Z,45.33
2022-09-07T22:42:21.633Z,45.31
2022-09-07T22:44:55.838Z,45.33
2022-09-07T22:47:30.393Z,45.33
2022-09-07T22:50:02.347Z,45.41
2022-09-07T22:52:35.608Z,45.29
2022-09-07T22:55:10.890Z,45.33
2022-09-07T22:57:43.285Z,45.43
2022-09-07T23:00:17.284Z,45.45
2022-09-07T23:02:49.800Z,45.54
2022-09-07T23:05:21.719Z,45.51
2022-09-07T23:07:53.958Z,45.58
2022-09-07T23:10:25.969Z,45.52
2022-09-07T23:12:58.025Z,45.51
2022-09-07T23:15:30.254Z,45.59
2022-09-07T23:18:04.853Z,45.60
2022-09-07T23:20:39.859Z,45.71
2022-09-07T23:23:13.533Z,45.66
2022-09-07T23:25:46.814Z,45.65
2022-09-07T23:28:18.867Z,45.69
2022-09-07T23:30:54.741Z,45.64
2022-09-07T23:33:28.510Z,45.73
2022-09-07T23:36:02.418Z,45.80
2022-09-07T23:38:35.342Z,45.83
2022-09-07T23:41:07.698Z,45.76
2022-09-07T23:43:39.648Z,45.84
2022-09-07T23:46:12.630Z,46.00
2022-09-07T23:48:47.446Z,46.03
2022-09-07T23:51:23.926Z,45.98
2022-09-07T23:53:56.592Z,45.99
2022-09-07T23:56:28.851Z,46.03
2022-09-07T23:59:03.073Z,45.93
